Time;durP1;ratioP1;P1;durP2;ratioP2;P2;SDS_P1;SDS_P2;PMS_P1;PMS_P2;Temp;Humidity;BMP_temperature;BMP_pressure;BME280_temperature;BME280_humidity;BME280_pressure;Samples;Min_cycle;Max_cycle;Signal;HPM_P1;HPM_P2
2021/09/28 00:00:40;;;;;;;15.97;14.50;;;18.70;99.90;;;;;;5088988;28;20619;-74
2021/09/28 00:03:06;;;;;;;16.07;14.47;;;18.60;99.90;;;;;;5089133;28;20202;-74
2021/09/28 00:05:34;;;;;;;16.07;14.47;;;18.60;99.90;;;;;;5088980;28;20222;-74
2021/09/28 00:08:01;;;;;;;15.83;14.43;;;18.70;99.90;;;;;;5089090;28;20258;-74
2021/09/28 00:10:28;;;;;;;15.00;13.63;;;18.70;99.90;;;;;;5089057;28;20230;-74
2021/09/28 00:12:55;;;;;;;16.53;15.03;;;18.60;99.90;;;;;;5088819;28;20581;-74
2021/09/28 00:15:22;;;;;;;16.67;14.83;;;18.60;99.90;;;;;;5088953;28;20260;-74
2021/09/28 00:17:48;;;;;;;16.13;14.73;;;18.60;99.90;;;;;;5088722;28;20210;-74
2021/09/28 00:20:16;;;;;;;16.23;14.70;;;18.60;99.90;;;;;;5088942;28;20629;-74
2021/09/28 00:22:45;;;;;;;15.73;14.13;;;18.60;99.90;;;;;;5088828;28;20210;-74
2021/09/28 00:25:11;;;;;;;15.57;14.10;;;18.60;99.90;;;;;;5088773;28;20213;-74
2021/09/28 00:27:38;;;;;;;15.97;14.40;;;18.60;99.90;;;;;;5088274;28;20355;-73
2021/09/28 00:30:06;;;;;;;16.33;14.83;;;18.60;99.90;;;;;;5088765;28;20206;-73
2021/09/28 00:32:33;;;;;;;15.63;14.33;;;18.60;99.90;;;;;;5088602;28;20209;-74
2021/09/28 00:34:59;;;;;;;15.50;14.03;;;18.60;99.90;;;;;;5088626;28;20287;-72
2021/09/28 00:37:26;;;;;;;15.43;14.13;;;18.50;99.90;;;;;;5088627;28;20276;-72
2021/09/28 00:39:54;;;;;;;15.60;14.10;;;18.50;99.90;;;;;;5088699;28;20244;-72
2021/09/28 00:42:21;;;;;;;16.67;14.83;;;18.50;99.90;;;;;;5088478;28;20268;-72
2021/09/28 00:44:48;;;;;;;15.50;14.10;;;18.50;99.90;;;;;;5088436;28;20206;-72
2021/09/28 00:47:16;;;;;;;15.67;14.23;;;18.50;99.90;;;;;;5088539;28;20266;-72
2021/09/28 00:49:44;;;;;;;15.07;13.70;;;18.50;99.90;;;;;;5088479;28;20211;-72
2021/09/28 00:52:12;;;;;;;17.07;13.60;;;18.50;99.90;;;;;;5088352;28;20252;-72
2021/09/28 00:54:39;;;;;;;14.67;13.37;;;18.50;99.90;;;;;;5088447;28;20668;-74
2021/09/28 00:57:08;;;;;;;16.23;14.37;;;18.50;99.90;;;;;;5088593;28;20276;-74
2021/09/28 00:59:35;;;;;;;15.40;14.00;;;18.50;99.90;;;;;;5088015;28;20277;-74
2021/09/28 01:02:03;;;;;;;15.17;13.73;;;18.50;99.90;;;;;;5088532;28;20206;-73
2021/09/28 01:04:30;;;;;;;14.53;13.17;;;18.50;99.90;;;;;;5088318;28;20202;-74
2021/09/28 01:06:59;;;;;;;15.03;13.53;;;18.50;99.90;;;;;;5088303;28;20245;-74
2021/09/28 01:09:25;;;;;;;14.77;13.57;;;18.50;99.90;;;;;;5088325;28;20248;-74
2021/09/28 01:11:52;;;;;;;15.33;13.83;;;18.50;99.90;;;;;;5088406;28;20612;-75
2021/09/28 01:14:21;;;;;;;14.67;13.27;;;18.50;99.90;;;;;;5095628;28;20271;-75
2021/09/28 01:16:48;;;;;;;14.53;13.03;;;18.40;99.90;;;;;;5108737;28;20462;-75
2021/09/28 01:19:14;;;;;;;14.80;13.50;;;18.50;99.90;;;;;;5108628;28;20202;-75
2021/09/28 01:21:42;;;;;;;15.07;13.47;;;18.40;99.90;;;;;;5108807;28;20214;-75
2021/09/28 01:24:10;;;;;;;15.53;14.03;;;18.30;99.90;;;;;;5108696;28;20210;-74
2021/09/28 01:26:37;;;;;;;15.70;14.23;;;18.30;99.90;;;;;;5108530;28;20636;-74
2021/09/28 01:29:07;;;;;;;15.27;13.77;;;18.30;99.90;;;;;;5108640;28;20206;-74
2021/09/28 01:31:34;;;;;;;15.33;13.83;;;18.30;99.90;;;;;;5108763;28;20190;-74
2021/09/28 01:34:01;;;;;;;15.83;14.10;;;18.30;99.90;;;;;;5108726;28;20210;-73
2021/09/28 01:36:27;;;;;;;14.70;13.40;;;18.30;99.90;;;;;;5108931;28;20638;-73
2021/09/28 01:38:55;;;;;;;15.13;13.53;;;18.30;99.90;;;;;;5108646;28;21069;-73
2021/09/28 01:41:22;;;;;;;14.53;13.33;;;18.10;99.90;;;;;;5108703;28;20207;-73
2021/09/28 01:43:48;;;;;;;15.17;13.77;;;18.10;99.90;;;;;;5108310;28;20219;-73
2021/09/28 01:46:15;;;;;;;15.67;14.37;;;18.00;99.90;;;;;;5108428;28;20720;-73
2021/09/28 01:48:47;;;;;;;14.53;13.23;;;17.90;99.90;;;;;;5108162;28;20206;-73
2021/09/28 01:51:13;;;;;;;14.67;13.30;;;17.80;99.90;;;;;;5108380;28;20199;-73
2021/09/28 01:53:40;;;;;;;15.80;14.10;;;17.80;99.90;;;;;;5108166;28;20198;-73
2021/09/28 01:56:08;;;;;;;13.83;12.53;;;17.90;99.90;;;;;;5108414;28;20202;-73
2021/09/28 01:58:35;;;;;;;14.97;13.67;;;17.90;99.90;;;;;;5107631;28;20250;-73
2021/09/28 02:01:02;;;;;;;14.20;12.80;;;17.90;99.90;;;;;;5108255;28;20265;-73
2021/09/28 02:03:29;;;;;;;14.13;12.63;;;17.80;99.90;;;;;;5108238;28;20206;-73
2021/09/28 02:05:55;;;;;;;13.70;12.50;;;17.80;99.90;;;;;;5108134;28;20206;-73
2021/09/28 02:08:22;;;;;;;14.90;13.40;;;17.90;99.90;;;;;;5109365;28;20261;-73
2021/09/28 02:10:48;;;;;;;14.93;12.87;;;17.70;99.90;;;;;;5111571;28;20672;-73
2021/09/28 02:13:17;;;;;;;13.07;11.70;;;17.70;99.90;;;;;;5111955;28;20268;-72
2021/09/28 02:15:43;;;;;;;12.80;11.70;;;17.70;99.90;;;;;;5111845;28;20255;-72
2021/09/28 02:18:10;;;;;;;13.97;12.63;;;17.70;99.90;;;;;;5111949;28;20202;-72
2021/09/28 02:20:37;;;;;;;13.37;11.87;;;17.70;99.90;;;;;;5111654;28;20202;-72
2021/09/28 02:23:03;;;;;;;15.27;11.50;;;17.70;99.90;;;;;;5111641;28;20741;-73
2021/09/28 02:25:30;;;;;;;12.27;11.17;;;17.70;99.90;;;;;;5111735;28;20205;-73
2021/09/28 02:27:56;;;;;;;12.70;11.40;;;17.80;99.90;;;;;;5111723;28;20261;-73
2021/09/28 02:30:24;;;;;;;12.40;11.27;;;17.80;99.90;;;;;;5111465;27;20536;-73
2021/09/28 02:32:51;;;;;;;12.10;10.80;;;17.80;99.90;;;;;;5101111;28;20191;-73
2021/09/28 02:35:18;;;;;;;13.57;10.47;;;17.90;99.90;;;;;;5090909;28;20223;-75
2021/09/28 02:37:45;;;;;;;12.30;10.63;;;17.90;99.90;;;;;;5120819;27;20663;-74
2021/09/28 02:40:13;;;;;;;11.30;10.20;;;17.90;99.90;;;;;;5111620;28;20206;-73
2021/09/28 02:42:40;;;;;;;11.83;10.73;;;17.90;99.90;;;;;;5111437;28;20210;-74
2021/09/28 02:45:08;;;;;;;13.03;11.20;;;17.90;99.90;;;;;;5108293;27;20571;-74
2021/09/28 02:47:37;;;;;;;13.17;11.87;;;17.80;99.90;;;;;;5115659;27;20237;-74
2021/09/28 02:50:04;;;;;;;12.47;11.17;;;17.70;99.90;;;;;;5125475;27;20270;-73
2021/09/28 02:52:31;;;;;;;12.47;11.27;;;17.60;99.90;;;;;;5116502;27;20675;-73
2021/09/28 02:54:57;;;;;;;12.80;11.47;;;17.70;99.90;;;;;;5127776;27;20209;-73
2021/09/28 02:57:24;;;;;;;13.60;11.90;;;17.70;99.90;;;;;;5116087;27;20594;-74
2021/09/28 02:59:52;;;;;;;12.03;10.90;;;17.70;99.90;;;;;;5107739;28;20248;-73
2021/09/28 03:02:18;;;;;;;14.30;12.90;;;17.70;99.90;;;;;;5107292;28;20233;-74
2021/09/28 03:04:46;;;;;;;13.50;12.03;;;17.60;99.90;;;;;;5107286;28;20215;-74
2021/09/28 03:07:13;;;;;;;12.87;11.70;;;17.60;99.90;;;;;;5112910;27;20762;-73
2021/09/28 03:09:39;;;;;;;13.10;11.90;;;17.50;99.90;;;;;;5127252;27;20209;-73
2021/09/28 03:12:07;;;;;;;12.37;11.13;;;17.40;99.90;;;;;;5127481;27;20254;-73
2021/09/28 03:14:34;;;;;;;12.77;11.47;;;17.50;99.90;;;;;;5127427;27;20201;-73
2021/09/28 03:17:01;;;;;;;12.47;11.27;;;17.40;99.90;;;;;;5126920;27;20255;-73
2021/09/28 03:19:28;;;;;;;11.87;10.60;;;17.30;99.90;;;;;;5097662;27;20272;-73
2021/09/28 03:21:56;;;;;;;12.07;10.93;;;17.30;99.90;;;;;;5088313;28;20206;-73
2021/09/28 03:24:22;;;;;;;11.47;10.37;;;17.30;99.90;;;;;;5088708;28;20307;-73
2021/09/28 03:26:49;;;;;;;11.13;10.13;;;17.30;99.90;;;;;;5088528;28;20264;-73
2021/09/28 03:29:16;;;;;;;10.87;9.90;;;17.30;99.90;;;;;;5088667;28;20234;-73
2021/09/28 03:31:43;;;;;;;11.67;10.57;;;17.20;99.90;;;;;;5088500;28;20202;-73
2021/09/28 03:34:10;;;;;;;11.53;10.30;;;17.30;99.90;;;;;;5088594;28;20238;-73
2021/09/28 03:36:36;;;;;;;10.83;9.73;;;17.20;99.90;;;;;;5089137;28;20234;-73
2021/09/28 03:39:04;;;;;;;9.83;8.70;;;17.30;99.90;;;;;;5089925;28;20238;-73
2021/09/28 03:41:31;;;;;;;11.13;8.73;;;17.20;99.90;;;;;;5090079;28;20203;-73
2021/09/28 03:43:57;;;;;;;10.83;7.90;;;17.20;99.90;;;;;;5105690;28;20221;-73
2021/09/28 03:46:24;;;;;;;8.43;7.73;;;17.20;99.90;;;;;;5110431;28;20287;-73
2021/09/28 03:48:51;;;;;;;8.37;7.67;;;17.20;99.90;;;;;;5109901;28;20234;-73
2021/09/28 03:51:17;;;;;;;7.77;7.00;;;17.20;99.90;;;;;;5109805;28;20733;-73
2021/09/28 03:53:44;;;;;;;7.33;6.63;;;17.20;99.90;;;;;;5109898;28;20206;-73
2021/09/28 03:56:12;;;;;;;7.10;5.77;;;17.20;99.90;;;;;;5109798;28;20687;-73
2021/09/28 03:58:39;;;;;;;5.70;4.97;;;17.20;99.90;;;;;;5109481;27;20273;-73
2021/09/28 04:01:05;;;;;;;5.53;5.03;;;17.10;99.90;;;;;;5109769;28;20214;-73
2021/09/28 04:03:32;;;;;;;5.43;4.93;;;17.10;99.90;;;;;;5109764;28;20206;-72
2021/09/28 04:05:58;;;;;;;5.10;3.93;;;17.10;99.90;;;;;;5109793;28;20252;-73
2021/09/28 04:08:25;;;;;;;4.10;3.80;;;17.00;99.90;;;;;;5109670;28;20230;-73
2021/09/28 04:10:52;;;;;;;4.63;3.80;;;16.90;99.90;;;;;;5109692;28;20259;-73
2021/09/28 04:13:19;;;;;;;4.10;3.50;;;17.00;99.90;;;;;;5109648;28;20569;-73
2021/09/28 04:15:46;;;;;;;5.30;3.60;;;17.00;99.90;;;;;;5109543;28;20201;-73
2021/09/28 04:18:14;;;;;;;3.50;2.93;;;16.90;99.90;;;;;;5109563;28;20267;-73
2021/09/28 04:20:43;;;;;;;3.73;2.97;;;16.90;99.90;;;;;;5109299;28;20845;-73
2021/09/28 04:23:11;;;;;;;4.20;3.03;;;16.90;99.90;;;;;;5109650;28;20263;-73
2021/09/28 04:25:39;;;;;;;3.13;2.93;;;16.90;99.90;;;;;;5109395;28;20265;-73
2021/09/28 04:28:06;;;;;;;2.80;2.60;;;16.90;99.90;;;;;;5109179;28;20232;-73
2021/09/28 04:30:34;;;;;;;2.90;2.70;;;16.90;99.90;;;;;;5109169;28;20652;-73
2021/09/28 04:33:00;;;;;;;3.77;2.60;;;16.80;99.90;;;;;;5109061;28;20624;-73
2021/09/28 04:35:28;;;;;;;2.90;2.60;;;16.70;99.90;;;;;;5109412;28;20226;-73
2021/09/28 04:37:55;;;;;;;3.93;2.57;;;16.60;99.90;;;;;;5109011;28;20630;-73
2021/09/28 04:40:21;;;;;;;3.13;2.23;;;16.60;99.90;;;;;;5109410;28;20263;-73
2021/09/28 04:42:48;;;;;;;2.63;2.40;;;16.50;99.90;;;;;;5109407;28;20234;-73
2021/09/28 04:45:17;;;;;;;3.43;2.10;;;16.50;99.90;;;;;;5109451;28;20547;-73
2021/09/28 04:47:45;;;;;;;2.70;1.90;;;16.50;99.90;;;;;;5109067;28;20302;-73
2021/09/28 04:50:12;;;;;;;1.97;1.87;;;16.50;99.90;;;;;;5108896;28;20656;-73
2021/09/28 04:52:38;;;;;;;2.10;1.90;;;16.60;99.90;;;;;;5109256;28;20537;-74
2021/09/28 04:55:05;;;;;;;4.07;2.00;;;16.50;99.90;;;;;;5108493;28;20660;-73
2021/09/28 04:57:32;;;;;;;3.63;1.70;;;16.50;99.90;;;;;;5108692;28;20640;-73
2021/09/28 04:59:59;;;;;;;2.90;1.50;;;16.40;99.90;;;;;;5108924;28;20271;-74
2021/09/28 05:02:26;;;;;;;3.10;1.60;;;16.30;99.90;;;;;;5109020;28;20251;-73
2021/09/28 05:04:54;;;;;;;1.83;1.60;;;16.30;99.90;;;;;;5108644;28;20209;-73
2021/09/28 05:07:20;;;;;;;2.10;1.60;;;16.30;99.90;;;;;;5108895;28;20247;-73
2021/09/28 05:09:47;;;;;;;3.13;1.57;;;16.30;99.90;;;;;;5108822;28;20209;-73
2021/09/28 05:12:14;;;;;;;3.17;1.50;;;16.20;99.90;;;;;;5108532;28;20607;-73
2021/09/28 05:14:40;;;;;;;3.00;1.83;;;16.30;99.90;;;;;;5108961;28;20206;-73
2021/09/28 05:17:07;;;;;;;2.73;1.60;;;16.30;99.90;;;;;;5108017;28;20753;-73
2021/09/28 05:19:34;;;;;;;1.50;1.40;;;16.20;99.90;;;;;;5105973;28;20234;-73
2021/09/28 05:22:02;;;;;;;1.80;1.60;;;16.20;99.90;;;;;;5108744;28;20294;-73
2021/09/28 05:24:28;;;;;;;3.77;1.93;;;16.10;99.90;;;;;;5108641;28;20205;-73
2021/09/28 05:26:55;;;;;;;1.90;1.60;;;16.10;99.90;;;;;;5108403;28;20248;-73
2021/09/28 05:29:21;;;;;;;3.57;2.23;;;16.00;99.90;;;;;;5108677;28;20279;-73
2021/09/28 05:31:48;;;;;;;2.77;1.60;;;16.10;99.90;;;;;;5108579;28;20213;-74
2021/09/28 05:34:15;;;;;;;1.97;1.77;;;16.10;99.90;;;;;;5108509;28;20226;-73
2021/09/28 05:36:42;;;;;;;1.97;1.73;;;16.10;99.90;;;;;;5108382;28;20731;-73
2021/09/28 05:39:10;;;;;;;3.37;1.67;;;16.10;99.90;;;;;;5108648;28;20226;-73
2021/09/28 05:41:37;;;;;;;4.23;3.73;;;16.10;99.90;;;;;;5108371;28;20723;-73
2021/09/28 05:44:04;;;;;;;2.73;1.90;;;16.10;99.90;;;;;;5110568;28;20206;-73
2021/09/28 05:46:31;;;;;;;3.93;2.30;;;16.20;99.90;;;;;;5112376;28;20206;-73
2021/09/28 05:48:58;;;;;;;3.23;1.80;;;16.20;99.90;;;;;;5112384;28;20226;-73
2021/09/28 05:51:27;;;;;;;2.57;1.93;;;16.20;99.90;;;;;;5112436;28;20202;-73
2021/09/28 05:53:56;;;;;;;4.77;3.30;;;16.20;99.90;;;;;;5112472;28;20300;-73
2021/09/28 05:56:25;;;;;;;4.93;3.00;;;16.20;99.90;;;;;;5112416;28;20618;-73
2021/09/28 05:58:51;;;;;;;3.40;2.00;;;16.10;99.90;;;;;;5111587;28;20287;-73
2021/09/28 06:01:21;;;;;;;1.60;1.47;;;16.20;99.90;;;;;;5112185;28;20598;-73
2021/09/28 06:03:47;;;;;;;2.10;1.80;;;16.20;99.90;;;;;;5112143;28;20206;-73
2021/09/28 06:06:18;;;;;;;2.07;1.60;;;16.30;99.90;;;;;;5112384;28;20723;-73
2021/09/28 06:08:45;;;;;;;2.50;1.60;;;16.30;99.90;;;;;;5112062;28;20228;-73
2021/09/28 06:11:12;;;;;;;2.17;1.90;;;16.20;99.90;;;;;;5112181;28;20202;-73
2021/09/28 06:13:39;;;;;;;2.30;2.10;;;16.20;99.90;;;;;;5112097;28;20260;-73
2021/09/28 06:16:06;;;;;;;2.73;1.70;;;16.30;99.90;;;;;;5112075;28;20235;-73
2021/09/28 06:18:33;;;;;;;3.87;1.77;;;16.30;99.90;;;;;;5097409;28;20725;-73
2021/09/28 06:20:59;;;;;;;4.70;1.80;;;16.40;99.90;;;;;;5111884;28;20210;-73
2021/09/28 06:23:26;;;;;;;4.27;2.17;;;16.30;99.90;;;;;;5111941;28;20202;-74
2021/09/28 06:25:52;;;;;;;2.70;1.77;;;16.40;99.90;;;;;;5111763;28;20202;-73
2021/09/28 06:28:19;;;;;;;3.13;1.67;;;16.50;99.90;;;;;;5111667;27;20275;-73
2021/09/28 06:30:47;;;;;;;3.03;1.77;;;16.50;99.90;;;;;;5111872;28;20210;-73
2021/09/28 06:33:14;;;;;;;4.47;1.60;;;16.60;99.90;;;;;;5111720;28;20229;-73
2021/09/28 06:35:41;;;;;;;2.53;1.80;;;16.60;99.90;;;;;;5111478;28;20234;-74
2021/09/28 06:38:08;;;;;;;3.70;1.70;;;16.70;99.90;;;;;;5111511;28;20278;-73
2021/09/28 06:40:35;;;;;;;4.10;2.00;;;16.70;99.90;;;;;;5111774;28;20313;-73
2021/09/28 06:43:02;;;;;;;3.70;2.23;;;16.80;99.90;;;;;;5111223;28;20206;-73
2021/09/28 06:45:29;;;;;;;3.60;1.90;;;16.90;99.90;;;;;;5111399;28;20869;-73
2021/09/28 06:47:57;;;;;;;6.73;2.20;;;16.90;99.90;;;;;;5111236;28;20233;-73
2021/09/28 06:50:24;;;;;;;2.67;2.10;;;17.00;99.90;;;;;;5111547;28;20247;-73
2021/09/28 06:52:51;;;;;;;3.80;2.03;;;16.80;99.90;;;;;;5111089;28;20210;-73
2021/09/28 06:55:18;;;;;;;4.77;2.00;;;16.70;99.90;;;;;;5110716;28;20206;-73
2021/09/28 06:57:45;;;;;;;4.57;1.73;;;16.60;99.90;;;;;;5111039;28;20475;-73
2021/09/28 07:00:13;;;;;;;4.47;1.60;;;16.60;99.90;;;;;;5110565;28;20638;-73
2021/09/28 07:02:40;;;;;;;3.27;1.70;;;16.60;99.90;;;;;;5110940;28;20240;-73
2021/09/28 07:05:13;;;;;;;3.33;2.30;;;16.70;99.90;;;;;;5110765;27;20729;-73
2021/09/28 07:07:40;;;;;;;4.83;2.43;;;16.70;99.90;;;;;;5110845;28;20194;-73
2021/09/28 07:10:08;;;;;;;3.33;1.90;;;16.70;99.90;;;;;;5110703;28;20638;-73
2021/09/28 07:12:35;;;;;;;2.77;1.70;;;16.60;99.90;;;;;;5110946;28;20198;-73
2021/09/28 07:15:02;;;;;;;3.77;2.20;;;16.60;99.90;;;;;;5110668;28;20267;-73
2021/09/28 07:17:29;;;;;;;2.00;1.63;;;16.50;99.90;;;;;;5110853;28;20246;-73
2021/09/28 07:19:55;;;;;;;5.13;2.00;;;16.60;99.90;;;;;;5110585;28;20210;-73
2021/09/28 07:22:25;;;;;;;3.90;1.97;;;16.60;99.90;;;;;;5110624;28;20209;-73
2021/09/28 07:24:52;;;;;;;6.90;2.07;;;16.50;99.90;;;;;;5110276;28;20209;-73
2021/09/28 07:27:19;;;;;;;3.47;1.63;;;16.60;99.90;;;;;;5110234;28;20206;-73
2021/09/28 07:29:45;;;;;;;3.40;1.60;;;16.60;99.90;;;;;;5110211;28;20234;-73
2021/09/28 07:32:13;;;;;;;3.70;1.60;;;16.60;99.90;;;;;;5110202;28;20278;-73
2021/09/28 07:34:40;;;;;;;5.27;2.43;;;16.60;99.90;;;;;;5109726;28;20233;-73
2021/09/28 07:37:06;;;;;;;5.60;2.60;;;16.50;99.90;;;;;;5109959;28;20206;-73
2021/09/28 07:39:34;;;;;;;5.00;2.97;;;16.60;99.90;;;;;;5110096;28;20202;-73
2021/09/28 07:42:01;;;;;;;9.50;2.20;;;16.50;99.90;;;;;;5110101;28;20209;-73
2021/09/28 07:44:28;;;;;;;7.30;2.33;;;16.60;99.90;;;;;;5110042;28;20294;-73
2021/09/28 07:46:54;;;;;;;4.97;2.37;;;16.70;99.90;;;;;;5109945;27;20202;-73
2021/09/28 07:49:21;;;;;;;6.80;2.00;;;16.70;99.90;;;;;;5110054;28;20259;-73
2021/09/28 07:51:48;;;;;;;6.30;1.80;;;16.70;99.90;;;;;;5109961;28;20200;-73
2021/09/28 07:54:14;;;;;;;4.60;1.63;;;16.70;99.90;;;;;;5109813;28;20206;-73
2021/09/28 07:56:43;;;;;;;3.40;2.10;;;16.60;99.90;;;;;;5109687;28;20712;-73
2021/09/28 07:59:10;;;;;;;6.57;2.13;;;16.80;99.90;;;;;;5109122;28;20329;-73
2021/09/28 08:01:37;;;;;;;3.80;1.90;;;16.90;99.90;;;;;;5109883;28;20206;-73
2021/09/28 08:04:04;;;;;;;5.07;2.20;;;17.00;99.90;;;;;;5109311;28;20748;-73
2021/09/28 08:06:31;;;;;;;6.70;2.73;;;17.00;99.90;;;;;;5109094;28;20279;-73
2021/09/28 08:08:58;;;;;;;6.20;2.13;;;17.20;99.90;;;;;;5109294;28;20221;-73
2021/09/28 08:11:24;;;;;;;5.40;2.03;;;17.10;99.90;;;;;;5109553;28;20238;-73
2021/09/28 08:13:53;;;;;;;5.27;2.37;;;17.10;99.90;;;;;;5109514;28;20206;-73
2021/09/28 08:16:20;;;;;;;5.63;1.80;;;17.00;99.90;;;;;;5109707;28;20626;-73
2021/09/28 08:18:47;;;;;;;9.87;2.50;;;17.00;99.90;;;;;;5109618;28;20210;-73
2021/09/28 08:21:13;;;;;;;4.63;1.70;;;17.10;99.90;;;;;;5108817;28;20728;-73
2021/09/28 08:23:40;;;;;;;6.97;2.03;;;17.10;99.90;;;;;;5108782;28;20777;-73
2021/09/28 08:31:38;;;;;;;2.33;1.60;;;17.30;99.90;;;;;;5109439;28;20189;-73
2021/09/28 08:34:05;;;;;;;6.07;2.27;;;17.30;99.90;;;;;;5109235;28;20252;-73
2021/09/28 08:36:32;;;;;;;4.57;1.90;;;17.40;99.90;;;;;;5109303;28;20209;-73
2021/09/28 08:38:59;;;;;;;4.07;1.87;;;17.40;99.90;;;;;;5109339;28;20226;-73
2021/09/28 08:41:25;;;;;;;6.30;2.20;;;17.50;99.90;;;;;;5109306;28;20213;-73
2021/09/28 08:43:52;;;;;;;5.33;2.20;;;17.30;99.90;;;;;;5109269;28;20237;-73
2021/09/28 08:46:20;;;;;;;6.40;2.33;;;17.20;99.90;;;;;;5109319;28;20221;-73
2021/09/28 08:48:49;;;;;;;4.57;2.30;;;17.10;99.90;;;;;;5108767;28;20259;-74
2021/09/28 08:51:16;;;;;;;5.40;2.17;;;17.10;99.90;;;;;;5108704;28;20241;-73
2021/09/28 08:53:43;;;;;;;5.97;2.60;;;17.10;99.90;;;;;;5109152;28;20307;-73
2021/09/28 08:56:11;;;;;;;4.97;2.43;;;17.10;99.90;;;;;;5108521;28;20279;-74
2021/09/28 08:58:53;;;;;;;4.47;2.13;;;16.90;99.90;;;;;;5108523;28;20240;-73
2021/09/28 09:01:20;;;;;;;3.50;2.23;;;17.00;99.90;;;;;;5108609;28;20198;-73
2021/09/28 09:03:48;;;;;;;5.70;2.30;;;16.90;99.90;;;;;;5108863;28;20259;-73
2021/09/28 09:06:15;;;;;;;5.87;2.60;;;16.90;99.90;;;;;;5108751;28;20202;-73
2021/09/28 09:08:48;;;;;;;6.67;2.63;;;16.70;99.90;;;;;;5108884;28;20202;-73
2021/09/28 09:11:16;;;;;;;4.87;2.53;;;16.80;99.90;;;;;;5108736;28;20275;-74
2021/09/28 09:13:44;;;;;;;3.93;2.67;;;16.80;99.90;;;;;;5108081;28;20569;-73
2021/09/28 09:16:13;;;;;;;4.63;2.70;;;17.00;99.90;;;;;;5108664;28;20244;-73
2021/09/28 09:18:41;;;;;;;9.30;3.47;;;17.00;99.90;;;;;;5111951;28;20617;-73
2021/09/28 09:21:10;;;;;;;6.53;3.30;;;17.00;99.90;;;;;;5112902;28;20245;-73
2021/09/28 09:23:38;;;;;;;7.60;3.83;;;17.00;99.90;;;;;;5112920;28;20201;-73
2021/09/28 09:26:09;;;;;;;8.03;3.57;;;17.00;99.90;;;;;;5112613;28;20213;-74
2021/09/28 09:28:37;;;;;;;6.60;3.17;;;16.90;99.90;;;;;;5112881;28;20194;-73
2021/09/28 09:31:09;;;;;;;8.73;3.20;;;17.00;99.90;;;;;;5112640;28;20257;-73
2021/09/28 09:33:36;;;;;;;6.80;3.00;;;17.20;99.90;;;;;;5112604;28;20226;-73
2021/09/28 09:36:03;;;;;;;8.33;3.33;;;17.30;99.90;;;;;;5112527;28;20206;-73
2021/09/28 09:38:40;;;;;;;6.43;3.10;;;17.30;99.90;;;;;;5112577;28;20245;-73
2021/09/28 09:41:06;;;;;;;4.27;2.97;;;17.20;99.90;;;;;;5112682;28;20194;-73
2021/09/28 09:43:35;;;;;;;4.10;2.77;;;17.20;99.90;;;;;;5112351;28;20206;-73
2021/09/28 09:46:14;;;;;;;9.13;3.20;;;16.90;99.90;;;;;;5112455;28;20242;-73
2021/09/28 09:48:41;;;;;;;6.10;2.63;;;16.80;99.90;;;;;;5112626;28;20201;-73
2021/09/28 09:51:10;;;;;;;10.37;3.20;;;16.70;99.90;;;;;;5112057;28;20711;-73
2021/09/28 09:53:50;;;;;;;5.10;3.10;;;16.60;99.90;;;;;;5112721;28;20262;-73
2021/09/28 09:56:17;;;;;;;5.00;2.77;;;16.60;99.90;;;;;;5112296;28;20627;-73
2021/09/28 09:58:44;;;;;;;6.37;2.97;;;16.60;99.90;;;;;;5111911;28;20238;-73
2021/09/28 10:01:11;;;;;;;4.67;2.57;;;16.60;99.90;;;;;;5112387;28;20213;-73
2021/09/28 10:03:39;;;;;;;7.17;3.10;;;16.80;99.90;;;;;;5112172;28;20202;-74
2021/09/28 10:06:06;;;;;;;5.07;3.17;;;17.00;99.90;;;;;;5111978;28;20208;-73
2021/09/28 10:08:33;;;;;;;7.17;2.97;;;17.20;99.90;;;;;;5112476;28;20281;-73
2021/09/28 10:11:02;;;;;;;6.90;3.03;;;17.30;99.90;;;;;;5111901;28;20261;-73
2021/09/28 10:13:49;;;;;;;8.60;2.97;;;17.20;99.90;;;;;;5111775;28;20659;-73
2021/09/28 10:16:52;;;;;;;8.07;3.13;;;17.40;99.90;;;;;;5112025;28;20208;-73
2021/09/28 10:19:45;;;;;;;7.47;3.20;;;17.40;99.90;;;;;;5111734;28;20742;-73
2021/09/28 10:22:38;;;;;;;5.43;2.63;;;17.40;99.90;;;;;;5111593;28;20240;-73
2021/09/28 10:25:33;;;;;;;8.00;3.13;;;17.10;99.90;;;;;;5111687;28;20248;-73
2021/09/28 10:28:32;;;;;;;6.50;3.57;;;17.10;99.90;;;;;;5111741;28;20202;-74
2021/09/28 10:31:00;;;;;;;6.47;3.17;;;17.20;99.90;;;;;;5111331;28;20733;-73
2021/09/28 10:33:29;;;;;;;6.37;3.53;;;17.20;99.90;;;;;;5111577;28;20222;-73
2021/09/28 10:35:58;;;;;;;7.87;3.50;;;17.30;99.90;;;;;;5111453;28;20261;-73
2021/09/28 10:38:54;;;;;;;9.47;3.67;;;17.40;99.90;;;;;;5111559;28;20206;-73
2021/09/28 10:41:50;;;;;;;7.60;3.13;;;17.50;99.90;;;;;;5111452;28;20194;-74
2021/09/28 10:44:51;;;;;;;5.03;2.97;;;17.30;99.90;;;;;;5111283;28;20191;-74
2021/09/28 10:47:49;;;;;;;5.03;3.37;;;17.20;99.90;;;;;;5111232;27;20198;-74
2021/09/28 10:50:41;;;;;;;8.43;3.53;;;17.30;99.90;;;;;;5111163;27;20229;-73
2021/09/28 10:53:29;;;;;;;7.27;2.97;;;17.40;99.90;;;;;;5105085;27;20283;-74
2021/09/28 10:55:58;;;;;;;5.40;2.90;;;17.50;99.90;;;;;;5110811;28;20700;-74
2021/09/28 10:58:26;;;;;;;8.93;3.40;;;17.60;99.90;;;;;;5110651;28;20248;-74
2021/09/28 11:01:09;;;;;;;5.87;2.87;;;17.70;99.90;;;;;;5110706;28;20755;-74
2021/09/28 11:04:21;;;;;;;6.47;2.43;;;17.70;99.90;;;;;;5111071;28;20204;-74
2021/09/28 11:06:58;;;;;;;5.23;2.53;;;17.80;99.90;;;;;;5111070;28;20194;-74
2021/09/28 11:09:27;;;;;;;5.73;2.70;;;17.90;99.90;;;;;;5110981;28;20204;-74
2021/09/28 11:11:59;;;;;;;7.80;2.87;;;17.90;99.90;;;;;;5111008;28;20671;-74
2021/09/28 11:14:26;;;;;;;5.43;2.73;;;17.70;99.90;;;;;;5110835;28;20195;-74
2021/09/28 11:16:57;;;;;;;7.00;2.73;;;17.70;99.90;;;;;;5111174;28;20390;-74
2021/09/28 11:19:32;;;;;;;7.03;2.60;;;17.80;99.90;;;;;;5109806;28;20198;-74
2021/09/28 11:22:00;;;;;;;6.87;3.20;;;17.70;99.90;;;;;;5111056;28;20200;-74
2021/09/28 11:24:30;;;;;;;6.90;2.83;;;17.70;99.90;;;;;;5110309;28;20221;-74
2021/09/28 11:27:01;;;;;;;7.87;3.07;;;17.80;99.90;;;;;;5110719;28;20186;-74
2021/09/28 11:29:28;;;;;;;7.30;2.70;;;17.80;99.90;;;;;;5110417;28;20249;-74
2021/09/28 11:31:57;;;;;;;4.70;2.23;;;17.90;99.90;;;;;;5110488;28;20228;-74
2021/09/28 11:34:31;;;;;;;6.87;2.40;;;17.90;99.90;;;;;;5110359;28;20218;-74
2021/09/28 11:37:02;;;;;;;5.40;2.37;;;17.80;99.90;;;;;;5110357;28;20255;-74
2021/09/28 11:39:33;;;;;;;8.53;3.80;;;17.90;99.90;;;;;;5110261;28;20273;-74
2021/09/28 11:42:00;;;;;;;7.23;2.60;;;18.10;99.90;;;;;;5109172;28;20200;-73
2021/09/28 11:44:41;;;;;;;6.67;2.40;;;18.30;99.90;;;;;;5109854;28;20249;-74
2021/09/28 11:47:17;;;;;;;5.63;2.93;;;18.50;99.90;;;;;;5110381;28;20190;-73
2021/09/28 11:49:50;;;;;;;4.77;2.40;;;18.60;99.90;;;;;;5110091;28;20198;-73
2021/09/28 11:52:17;;;;;;;9.07;4.00;;;18.70;99.90;;;;;;5110104;28;20241;-73
2021/09/28 11:54:45;;;;;;;6.83;2.60;;;18.80;99.90;;;;;;5109938;27;20206;-74
2021/09/28 11:57:12;;;;;;;8.40;3.00;;;18.70;99.90;;;;;;5109969;28;20202;-74
2021/09/28 11:59:39;;;;;;;3.27;2.53;;;18.60;99.90;;;;;;5109310;28;20281;-73
2021/09/28 12:02:06;;;;;;;9.13;2.70;;;18.70;99.90;;;;;;5109672;28;20277;-74
2021/09/28 12:04:53;;;;;;;5.00;1.80;;;18.80;99.90;;;;;;5109824;28;20537;-74
2021/09/28 12:07:57;;;;;;;6.50;2.30;;;18.90;99.90;;;;;;5109567;28;20726;-73
2021/09/28 12:10:15;;;;;;;6.73;2.53;;;19.00;99.90;;;;;;5108839;28;20327;-74
2021/09/28 12:12:42;;;;;;;8.03;2.70;;;19.10;99.90;;;;;;5109667;28;20186;-74
2021/09/28 12:15:10;;;;;;;5.77;2.27;;;19.20;99.90;;;;;;5109201;28;20736;-74
2021/09/28 12:17:39;;;;;;;4.00;2.27;;;19.40;99.90;;;;;;5109449;28;20260;-74
2021/09/28 12:20:10;;;;;;;5.33;2.50;;;19.60;99.90;;;;;;5109187;28;20206;-74
2021/09/28 12:22:39;;;;;;;4.20;2.00;;;19.60;99.90;;;;;;5109870;28;20225;-74
2021/09/28 12:25:08;;;;;;;3.57;1.70;;;19.70;99.90;;;;;;5109415;28;20205;-74
2021/09/28 12:27:35;;;;;;;6.03;2.13;;;19.60;99.90;;;;;;5109740;28;20209;-74
2021/09/28 12:30:09;;;;;;;5.10;1.80;;;19.60;99.90;;;;;;5109418;28;20234;-74
2021/09/28 12:32:36;;;;;;;5.87;1.87;;;19.60;99.90;;;;;;5109446;28;20567;-74
2021/09/28 12:35:06;;;;;;;6.87;2.20;;;19.60;99.90;;;;;;5109212;28;21073;-74
2021/09/28 12:37:47;;;;;;;8.80;2.03;;;19.40;99.90;;;;;;5109449;28;20197;-74
2021/09/28 12:40:16;;;;;;;4.73;1.80;;;19.50;99.90;;;;;;5109216;28;20280;-74
2021/09/28 12:42:43;;;;;;;4.00;2.07;;;19.50;99.90;;;;;;5109184;28;20605;-74
2021/09/28 12:45:13;;;;;;;4.50;1.73;;;19.60;99.90;;;;;;5109140;27;20206;-74
2021/09/28 12:47:41;;;;;;;3.43;2.17;;;19.70;99.90;;;;;;5109245;28;20278;-74
2021/09/28 12:50:19;;;;;;;3.40;2.00;;;19.70;99.90;;;;;;5109131;28;20261;-74
2021/09/28 12:52:47;;;;;;;4.60;2.30;;;19.60;99.90;;;;;;5108440;28;20728;-74
2021/09/28 12:55:14;;;;;;;4.27;2.30;;;19.60;99.90;;;;;;5108932;27;20298;-74